Terminal Aerodrome Forecast
Issued by NWS

Home | Current Version | Previous Version | Text Only | Print | Product List | Glossary On
Versions: 1 2 3 4 5 6 7 8 9 10 11 12 13 14 15
000
FTUS44 KLZK 252300
TAFBPK
TAF
KBPK 252340Z 2600/2624 31010G18KT P6SM VCSH OVC018
     FM260600 32008G14KT P6SM OVC020
     FM261000 29005KT P6SM SCT009 OVC015
     FM261600 27007KT P6SM SCT020
     FM261900 25010KT P6SM SKC=

USA.gov is the U.S. government's official web portal to all federal, state and local government web resources and services.